Latest Weather Observations for Oenpelli Airport

IDD60801

Issued at 1:31 pm CST Thursday 2 April 2015 (issued every 30 minutes, with the page automatically refreshed every 10 minutes)

About weather observations | Map of weather stations | Latest weather observations for NT | Other Formats
Station Details ID: 014310 Name: OENPELLI AIRPORT Lat: -12.33 Lon: 133.01 Height: 7.5 m
Data from the previous 72 hours. | See also: Recent months for locations in Northern Territory
Date/Time
CST
Temp
°C
App
Temp
°C
Dew
Point
Rel
Hum
%
Delta-T
°C
Wind Press
QNH
hPa
Press
MSL
hPa
Rain
since 9 am
mm
Dir
 
Spd
km/h
Gust
km/h
Spd
kts
Gust
kts
02/01:30pm 34.9 36.9 21.6 46 9.1 NE 13 20 7 11 1007.4 1007.3 0.0
02/01:00pm 34.9 38.2 22.6 49 8.5 NE 9 15 5 8 1007.8 1007.7 0.0
02/12:30pm 34.3 38.0 23.3 52 7.6 NE 9 17 5 9 1008.4 1008.3 0.0
02/12:00pm 33.8 36.9 22.2 50 7.9 NE 9 19 5 10 1009.0 1008.9 0.0
02/11:30am 33.0 37.5 23.6 57 6.5 NNE 6 11 3 6 1009.6 1009.5 0.0
02/11:00am 32.6 37.6 23.8 59 6.1 NE 4 9 2 5 1010.1 1010.0 0.0
02/10:30am 31.8 37.1 24.4 65 5.2 ENE 4 7 2 4 1010.4 1010.3 0.0
02/10:00am 30.7 35.4 23.9 67 4.7 NE 6 9 3 5 1010.6 1010.5 0.0
02/09:30am 29.6 34.4 24.2 73 3.8 NNE 6 9 3 5 1010.5 1010.4 0.0
02/09:00am 29.1 35.1 24.2 75 3.4 CALM 0 2 0 1 1010.5 1010.4 -
02/08:30am 27.6 33.4 24.0 81 2.5 CALM 0 6 0 3 1010.3 1010.2 -
02/08:00am 26.3 32.3 24.2 88 1.4 CALM 0 0 0 0 1010.0 1009.9 -
02/07:30am 25.5 32.3 25.5 100 0.0 CALM 0 0 0 0 1009.8 1009.7 -
02/07:00am 24.3 30.3 24.3 100 0.0 CALM 0 0 0 0 1009.5 1009.4 -
02/06:30am 24.3 30.3 24.3 100 0.0 CALM 0 0 0 0 1009.2 1009.1 -
02/06:00am 24.3 30.3 24.3 100 0.0 CALM 0 0 0 0 1009.1 1009.0 -
02/05:30am 24.3 30.3 24.3 100 0.0 CALM 0 0 0 0 1008.7 1008.6 -
02/05:00am 24.4 30.5 24.4 100 0.0 CALM 0 0 0 0 1008.6 1008.5 -
02/04:30am 24.5 30.6 24.5 100 0.0 CALM 0 0 0 0 1008.5 1008.4 -
02/04:00am 24.4 30.5 24.4 100 0.0 CALM 0 0 0 0 1008.4 1008.3 -
02/03:30am 24.5 30.6 24.5 100 0.0 CALM 0 0 0 0 1008.3 1008.2 -
02/03:00am 24.6 30.3 23.7 95 0.6 CALM 0 0 0 0 1008.6 1008.5 1.0
02/02:30am 25.3 30.3 23.2 88 1.4 ENE 2 4 1 2 1008.9 1008.8 -
02/02:00am 25.2 30.7 23.4 90 1.2 CALM 0 0 0 0 1009.4 1009.3 -
02/01:30am 25.4 30.1 23.3 88 1.4 E 4 7 2 4 1009.7 1009.6 -
02/01:00am 25.3 30.7 23.9 92 1.0 SSE 2 2 1 1 1010.0 1009.9 -
02/12:30am 25.4 30.8 23.8 91 1.1 E 2 4 1 2 1010.4 1010.3 -
02/12:00am 25.6 30.9 23.7 89 1.3 NNE 2 4 1 2 1010.5 1010.4 -
 
Date/Time
CST
Temp
°C
App
Temp
°C
Dew
Point
Rel
Hum
%
Delta-T
°C
Wind Press
QNH
hPa
Press
MSL
hPa
Rain
since 9 am
mm
Dir
 
Spd
km/h
Gust
km/h
Spd
kts
Gust
kts
01/11:30pm 25.2 29.2 22.7 86 1.7 NNE 6 6 3 3 1010.6 1010.5 -
01/11:00pm 25.6 30.1 22.9 85 1.8 SSW 4 7 2 4 1010.8 1010.7 -
01/10:30pm 26.2 27.4 21.4 75 3.2 S 17 30 9 16 1010.9 1010.8 -
01/10:00pm 26.2 28.8 23.9 87 1.6 SE 17 28 9 15 1011.5 1011.4 -
01/09:30pm 26.7 30.8 23.2 81 2.4 ENE 7 13 4 7 1010.7 1010.6 -
01/09:00pm 26.7 30.3 22.1 76 3.1 ESE 6 11 3 6 1010.6 1010.5 0.0
01/08:30pm 27.6 29.3 23.0 76 3.1 ENE 19 32 10 17 1010.8 1010.7 -
01/08:00pm 28.9 34.5 24.9 79 2.8 NE 4 7 2 4 1009.6 1009.5 -
01/07:30pm 29.1 33.6 24.0 74 3.5 NNE 7 11 4 6 1008.9 1008.8 -
01/07:00pm 29.7 33.5 23.4 69 4.3 N 9 13 5 7 1008.5 1008.4 -
01/06:30pm 30.8 33.7 23.2 64 5.2 NNE 13 20 7 11 1008.3 1008.2 -
01/06:00pm 32.6 35.5 21.8 53 7.3 NNE 9 15 5 8 1007.8 1007.7 -
01/05:30pm 33.4 35.3 20.5 46 8.6 NE 11 17 6 9 1007.9 1007.8 -
01/05:00pm 33.9 35.4 20.6 45 8.9 NE 13 17 7 9 1007.8 1007.7 -
01/04:30pm 34.2 35.4 20.6 45 9.1 NE 15 20 8 11 1007.8 1007.7 -
01/04:00pm 34.6 36.1 20.6 44 9.4 NNE 13 22 7 12 1007.8 1007.7 -
01/03:30pm 34.8 36.0 20.0 42 9.9 NNE 13 20 7 11 1007.9 1007.8 -
01/03:00pm 34.7 36.8 21.0 44 9.3 NNE 11 17 6 9 1008.1 1008.0 -
01/02:30pm 35.0 37.1 20.9 43 9.5 NE 11 19 6 10 1008.6 1008.5 -
01/02:00pm 34.9 - 20.5 43 9.7 - - - - - 1008.9 1008.8 -
01/12:30pm 33.9 - - - - NE 9 19 5 10 1010.4 1010.3 0.0
01/12:00pm 33.5 - - - - NNE 9 17 5 9 1011.0 1010.9 0.0
01/11:30am 33.0 - - - - NE 4 11 2 6 1011.6 1011.5 0.0
01/11:00am 32.1 - - - - NNE 4 7 2 4 1012.1 1012.0 0.0
01/10:30am 31.1 - - - - S 2 11 1 6 1012.5 1012.4 0.0
01/10:00am 31.6 - - - - W 2 6 1 3 1012.7 1012.6 0.0
01/09:30am 30.6 - - - - CALM 0 4 0 2 1012.7 1012.6 0.0
01/09:00am 29.3 - - - - SSW 2 4 1 2 1012.7 1012.6 0.0
01/08:30am 27.8 - - - - CALM 0 0 0 0 1012.5 1012.4 0.0
01/08:00am 26.2 - - - - NNW 2 4 1 2 1012.3 1012.2 0.0
01/07:30am 25.6 - - - - WNW 2 4 1 2 1011.9 1011.8 0.0
01/07:00am 24.5 - - - - CALM 0 0 0 0 1011.5 1011.4 0.0
01/06:30am 24.4 - - - - CALM 0 0 0 0 1011.1 1011.0 0.0
01/06:00am 24.5 - - - - CALM 0 0 0 0 1011.0 1010.9 0.0
01/05:30am 24.6 - - - - CALM 0 0 0 0 1010.8 1010.7 0.0
01/05:00am 24.9 - - - - CALM 0 0 0 0 1010.5 1010.4 0.0
01/04:30am 24.8 - - - - CALM 0 0 0 0 1010.5 1010.4 0.0
01/04:00am 24.8 - - - - CALM 0 0 0 0 1010.5 1010.4 0.0
01/03:30am 24.7 - - - - CALM 0 0 0 0 1010.6 1010.5 0.0
01/03:00am 24.8 - - - - CALM 0 0 0 0 1010.6 1010.5 0.0
01/02:30am 24.9 - - - - CALM 0 0 0 0 1010.7 1010.6 0.0
01/02:00am 25.3 - - - - CALM 0 0 0 0 1010.9 1010.8 0.0
01/01:30am 25.4 - - - - CALM 0 0 0 0 1011.3 1011.2 0.0
01/01:00am 25.8 - - - - CALM 0 0 0 0 1011.7 1011.6 0.0
01/12:30am 25.7 - - - - CALM 0 0 0 0 1012.1 1012.0 0.0
01/12:00am 26.5 - - - - N 2 4 1 2 1012.0 1011.9 0.0
 
Date/Time
CST
Temp
°C
App
Temp
°C
Dew
Point
Rel
Hum
%
Delta-T
°C
Wind Press
QNH
hPa
Press
MSL
hPa
Rain
since 9 am
mm
Dir
 
Spd
km/h
Gust
km/h
Spd
kts
Gust
kts
31/11:30pm 26.6 - - - - CALM 0 0 0 0 1012.0 1011.9 0.0
31/11:00pm 27.2 - - - - CALM 0 4 0 2 1012.0 1011.9 0.0
31/10:30pm 27.1 - - - - CALM 0 0 0 0 1011.8 1011.7 0.0
31/10:00pm 28.1 - - - - NE 4 6 2 3 1011.7 1011.6 0.0
31/09:30pm 27.9 - - - - CALM 0 0 0 0 1011.5 1011.4 0.0
31/09:00pm 28.8 - - - - ENE 2 4 1 2 1011.2 1011.1 0.0
31/08:30pm 29.4 - - - - NE 4 7 2 4 1010.8 1010.7 0.0
31/08:00pm 29.6 - - - - NE 2 4 1 2 1010.4 1010.3 0.0
31/07:30pm 30.0 - - - - NE 4 6 2 3 1010.1 1010.0 0.0
31/07:00pm 30.7 - - - - NE 6 6 3 3 1009.9 1009.8 0.0
31/06:30pm 31.8 - - - - NNE 6 7 3 4 1009.6 1009.5 0.0
31/06:00pm 33.1 - - - - NNE 7 13 4 7 1009.3 1009.2 0.0
31/05:30pm 34.0 - - - - NE 7 13 4 7 1009.0 1008.9 0.0
31/05:00pm 34.3 - - - - ENE 7 13 4 7 1009.0 1008.9 0.0
31/04:30pm 34.8 - - - - NE 11 15 6 8 1009.0 1008.9 0.0
31/04:00pm 34.4 - - - - ENE 13 22 7 12 1008.8 1008.7 0.0
31/03:30pm 34.6 - - - - ENE 11 17 6 9 1009.0 1008.9 0.0
31/03:00pm 34.5 - - - - NE 15 20 8 11 1009.2 1009.1 0.0
31/02:30pm 34.4 - - - - NE 11 19 6 10 1009.6 1009.5 0.0
31/02:00pm 34.0 - - - - NE 11 19 6 10 1010.0 1009.9 0.0
31/01:30pm 33.7 - - - - NE 13 19 7 10 1010.5 1010.4 0.0
31/01:00pm 33.8 - - - - ENE 15 22 8 12 1011.1 1011.0 0.0
31/12:30pm 33.0 - - - - ENE 11 20 6 11 1011.6 1011.5 0.0
31/12:00pm 33.0 - - - - ENE 15 24 8 13 1012.1 1012.0 0.0
31/11:30am 31.8 - - - - ENE 13 19 7 10 1012.6 1012.5 0.0
31/11:00am 31.5 - - - - E 13 17 7 9 1013.0 1012.9 0.0
31/10:30am 30.9 - - - - E 13 19 7 10 1013.2 1013.1 0.0
31/10:00am 30.3 - - - - E 11 19 6 10 1013.3 1013.2 0.0
31/09:30am 30.3 - - - - E 9 17 5 9 1013.4 1013.3 0.0
31/09:00am 29.2 - - - - E 9 19 5 10 1013.4 1013.3 1.2
31/08:30am 28.2 - - - - ESE 9 13 5 7 1013.5 1013.4 1.2
31/08:00am 27.1 - - - - ESE 6 11 3 6 1013.4 1013.3 1.2
31/07:30am 25.8 - - - - ESE 2 4 1 2 1013.1 1013.0 1.2
31/07:00am 24.6 - - - - NW 2 6 1 3 1012.7 1012.6 1.2
31/06:30am 23.8 - - - - CALM 0 4 0 2 1012.3 1012.2 1.2
31/06:00am 24.9 - - - - NW 2 4 1 2 1012.1 1012.0 1.2
31/05:30am 24.3 - - - - CALM 0 2 0 1 1011.7 1011.6 1.2
31/05:00am 24.6 - - - - NW 2 4 1 2 1011.5 1011.4 1.2
31/04:30am 24.4 - - - - CALM 0 0 0 0 1011.2 1011.1 1.2
31/04:00am 24.6 - - - - CALM 0 0 0 0 1011.3 1011.2 1.2
31/03:30am 24.7 - - - - CALM 0 0 0 0 1011.4 1011.3 1.2
31/03:00am 24.8 - - - - CALM 0 0 0 0 1011.5 1011.4 1.2
31/02:30am 24.9 - - - - CALM 0 0 0 0 1011.7 1011.6 1.2
31/02:00am 25.3 - - - - CALM 0 0 0 0 1011.9 1011.8 1.2
31/01:30am 25.7 - - - - NW 2 4 1 2 1012.0 1011.9 1.2
31/01:00am 26.1 - - - - CALM 0 0 0 0 1012.3 1012.2 1.2
31/12:30am 26.2 - - - - CALM 0 2 0 1 1012.5 1012.4 1.2
31/12:00am 25.8 - - - - CALM 0 0 0 0 1012.7 1012.6 1.2
 
Date/Time
CST
Temp
°C
App
Temp
°C
Dew
Point
Rel
Hum
%
Delta-T
°C
Wind Press
QNH
hPa
Press
MSL
hPa
Rain
since 9 am
mm
Dir
 
Spd
km/h
Gust
km/h
Spd
kts
Gust
kts
30/11:30pm 25.7 - - - - CALM 0 0 0 0 1013.0 1012.9 1.2
30/11:00pm 25.4 - - - - CALM 0 0 0 0 1013.1 1013.0 1.2
30/10:30pm 25.3 - - - - SSE 2 4 1 2 1013.1 1013.0 1.2
30/10:00pm 25.0 - - - - NNE 4 7 2 4 1013.2 1013.1 1.2
30/09:30pm 24.6 - - - - NE 15 24 8 13 1013.5 1013.4 1.2
30/09:11pm 28.5 - - - - NE 17 43 9 23 1013.0 1012.9 0.0
30/09:00pm 28.4 - - - - NE 9 15 5 8 1012.8 1012.7 0.0
30/08:30pm 28.9 - - - - N 4 6 2 3 1012.2 1012.1 0.0
30/08:00pm 28.3 - - - - CALM 0 0 0 0 1011.7 1011.6 0.0
30/07:30pm 29.1 - - - - NNW 4 6 2 3 1011.3 1011.2 0.0
30/07:00pm 29.6 - - - - NNE 2 4 1 2 1011.2 1011.1 0.0
30/06:30pm 30.5 - - - - NNE 7 9 4 5 1010.8 1010.7 0.0
30/06:00pm 31.9 - - - - NNE 7 9 4 5 1010.6 1010.5 0.0
30/05:30pm 32.7 - - - - NE 11 15 6 8 1010.3 1010.2 0.0
30/05:00pm 33.1 - - - - NNE 11 17 6 9 1010.2 1010.1 0.0
30/04:30pm 33.6 - - - - NE 13 22 7 12 1010.3 1010.2 0.0
30/04:00pm 34.0 - - - - NE 15 22 8 12 1010.3 1010.2 0.0
30/03:30pm 33.4 - - - - NE 13 19 7 10 1010.3 1010.2 0.0
30/03:00pm 32.9 - - - - NE 15 24 8 13 1010.5 1010.4 0.0
30/02:30pm 33.3 - - - - NE 13 20 7 11 1010.7 1010.6 0.0
30/02:00pm 32.7 - - - - NE 17 24 9 13 1010.9 1010.8 0.0

Other Formats:

Comma delimited format used in spreadsheet applications
http://www.bom.gov.au/fwo/IDD60801/IDD60801.94110.axf

JavaScript Object Notation format (JSON) in row-major order
http://www.bom.gov.au/fwo/IDD60801/IDD60801.94110.json